Time;durP1;ratioP1;P1;durP2;ratioP2;P2;SDS_P1;SDS_P2;PMS_P1;PMS_P2;Temp;Humidity;BMP_temperature;BMP_pressure;BME280_temperature;BME280_humidity;BME280_pressure;Samples;Min_cycle;Max_cycle;Signal;HPM_P1;HPM_P2
2023/10/30 00:01:53;;;;;;;5.10;1.10;;;;;;;11.99;93.18;99754.22;10370859;28;20509;-61
2023/10/30 00:07:15;;;;;;;5.78;1.15;;;;;;;11.95;93.51;99759.66;10371884;28;20057;-63
2023/10/30 00:12:38;;;;;;;8.02;1.20;;;;;;;11.92;93.59;99754.66;10360368;28;20041;-63
2023/10/30 00:18:00;;;;;;;4.43;0.90;;;;;;;11.87;93.73;99767.84;10365792;28;20041;-63
2023/10/30 00:23:22;;;;;;;6.43;1.17;;;;;;;11.87;93.53;99769.56;10361655;28;20128;-63
2023/10/30 00:28:44;;;;;;;5.90;1.20;;;;;;;11.83;94.10;99787.03;10370165;28;20056;-63
2023/10/30 00:34:09;;;;;;;14.32;1.20;;;;;;;11.81;93.84;99790.66;10365078;28;20555;-63
2023/10/30 00:39:32;;;;;;;5.90;0.88;;;;;;;11.87;93.65;99792.91;10370950;28;20046;-63
2023/10/30 00:44:54;;;;;;;4.88;0.90;;;;;;;11.85;93.59;99790.41;10361864;28;20176;-63
2023/10/30 00:50:16;;;;;;;5.93;1.02;;;;;;;11.85;94.14;99792.16;10363460;28;20043;-63
2023/10/30 00:55:40;;;;;;;6.78;1.08;;;;;;;11.82;94.06;99797.50;10362540;28;20053;-63
2023/10/30 01:01:02;;;;;;;5.05;1.23;;;;;;;11.85;94.04;99794.75;10363505;28;20034;-63
2023/10/30 01:06:24;;;;;;;6.47;1.00;;;;;;;11.82;94.36;99797.50;10371664;28;20486;-63
2023/10/30 01:11:46;;;;;;;8.13;1.27;;;;;;;11.85;93.66;99821.50;10363621;28;20143;-63
2023/10/30 01:17:08;;;;;;;4.00;0.90;;;;;;;11.83;94.27;99822.53;10360092;28;20038;-63
2023/10/30 01:22:30;;;;;;;4.88;0.98;;;;;;;11.84;93.93;99824.19;10360794;28;20056;-63
2023/10/30 01:27:52;;;;;;;5.38;1.30;;;;;;;11.87;93.41;99816.25;10359891;28;20124;-63
2023/10/30 01:33:14;;;;;;;7.68;1.25;;;;;;;11.88;93.57;99821.38;10355775;28;20038;-63
2023/10/30 01:38:36;;;;;;;5.38;1.23;;;;;;;11.87;94.24;99824.00;10358972;28;20057;-63
2023/10/30 01:43:58;;;;;;;10.43;1.60;;;;;;;11.86;93.88;99827.53;10362045;28;20534;-63
2023/10/30 01:49:21;;;;;;;5.90;1.23;;;;;;;11.84;94.06;99840.59;10358405;28;20176;-63
2023/10/30 01:54:45;;;;;;;12.60;1.55;;;;;;;11.87;93.84;99847.34;10361690;28;20049;-63
2023/10/30 02:00:07;;;;;;;10.30;1.10;;;;;;;11.86;94.25;99858.66;10367145;28;20568;-63
2023/10/30 02:05:29;;;;;;;11.35;2.00;;;;;;;11.85;94.01;99857.78;10362592;28;20093;-63
2023/10/30 02:10:51;;;;;;;5.43;1.10;;;;;;;11.87;93.76;99860.31;10360859;28;20049;-63
2023/10/30 02:16:15;;;;;;;5.82;1.13;;;;;;;11.85;93.87;99868.16;10363365;28;20054;-63
2023/10/30 02:21:37;;;;;;;6.03;1.25;;;;;;;11.86;94.33;99859.50;10364102;28;20046;-63
2023/10/30 02:27:01;;;;;;;5.38;1.30;;;;;;;11.85;94.44;99856.94;10360370;28;20059;-63
2023/10/30 02:32:23;;;;;;;8.27;1.48;;;;;;;11.87;94.50;99860.31;10362483;28;20537;-62
2023/10/30 02:37:45;;;;;;;10.25;1.60;;;;;;;11.90;93.96;99865.34;10363805;28;20042;-63
2023/10/30 02:43:07;;;;;;;6.30;1.80;;;;;;;11.97;93.90;99869.31;10361166;28;20046;-63
2023/10/30 02:48:29;;;;;;;7.28;1.20;;;;;;;11.99;93.89;99862.28;10358048;28;20068;-63
2023/10/30 02:53:51;;;;;;;7.03;1.30;;;;;;;12.04;94.39;99860.28;10368558;28;20091;-63
2023/10/30 02:59:13;;;;;;;10.35;1.50;;;;;;;12.06;93.85;99863.66;10366305;28;20129;-63
2023/10/30 03:04:35;;;;;;;7.28;1.27;;;;;;;12.14;93.97;99882.25;10363881;28;20172;-62
2023/10/30 03:09:57;;;;;;;8.50;1.50;;;;;;;12.09;94.53;99868.66;10369640;28;20419;-63
2023/10/30 03:15:19;;;;;;;5.70;1.17;;;;;;;12.12;94.47;99871.13;10364308;28;20046;-63
2023/10/30 03:20:41;;;;;;;14.00;1.73;;;;;;;12.14;93.63;99864.91;10367640;28;20045;-63
2023/10/30 03:26:03;;;;;;;11.50;1.77;;;;;;;12.16;93.59;99872.59;10378227;28;20053;-63
2023/10/30 03:31:26;;;;;;;14.27;2.03;;;;;;;12.20;93.72;99884.50;10366407;28;20030;-63
2023/10/30 03:36:48;;;;;;;11.60;1.65;;;;;;;12.17;94.16;99874.31;10364328;28;20494;-63
2023/10/30 03:42:10;;;;;;;9.25;1.55;;;;;;;12.19;94.11;99888.03;10371644;28;20510;-63
2023/10/30 03:47:32;;;;;;;11.30;1.67;;;;;;;12.19;94.39;99898.41;10360849;28;20046;-63
2023/10/30 03:52:54;;;;;;;11.05;1.70;;;;;;;12.21;93.90;99891.38;10365207;28;20042;-62
2023/10/30 03:58:16;;;;;;;6.97;1.33;;;;;;;12.21;94.13;99906.97;10371210;28;20053;-61
2023/10/30 04:03:38;;;;;;;6.57;1.50;;;;;;;12.22;93.92;99911.22;10366274;28;20418;-62
2023/10/30 04:09:02;;;;;;;8.20;1.58;;;;;;;12.20;93.95;99905.25;10363468;28;20089;-63
2023/10/30 04:14:24;;;;;;;14.18;1.90;;;;;;;12.17;94.02;99907.16;10367445;28;20060;-63
2023/10/30 04:19:46;;;;;;;8.68;1.33;;;;;;;12.16;93.87;99901.13;10358358;28;20413;-63
2023/10/30 04:25:08;;;;;;;14.68;1.58;;;;;;;12.16;94.11;99908.09;10359759;28;20042;-63
2023/10/30 04:30:30;;;;;;;15.63;1.75;;;;;;;12.13;94.21;99906.50;10361459;28;20137;-62
2023/10/30 04:35:53;;;;;;;11.73;1.33;;;;;;;12.18;93.89;99921.84;10359856;28;20124;-63
2023/10/30 04:41:15;;;;;;;13.43;1.90;;;;;;;12.19;93.54;99918.31;10355971;28;20057;-63
2023/10/30 04:46:37;;;;;;;11.90;1.60;;;;;;;12.17;94.07;99927.91;10387977;22;20056;-66
2023/10/30 04:51:59;;;;;;;18.88;1.75;;;;;;;12.19;94.37;99913.97;10400411;28;20042;-66
2023/10/30 04:57:21;;;;;;;15.68;1.60;;;;;;;12.16;94.25;99929.66;10397263;28;20080;-65
2023/10/30 05:02:46;;;;;;;10.77;1.40;;;;;;;12.15;94.65;99933.19;10401376;28;20042;-65
2023/10/30 05:08:08;;;;;;;7.15;1.33;;;;;;;12.10;94.28;99924.81;10398683;28;20050;-65
2023/10/30 05:13:31;;;;;;;12.57;1.75;;;;;;;12.13;94.96;99935.03;10394820;28;20484;-65
2023/10/30 05:18:53;;;;;;;10.75;1.70;;;;;;;12.07;95.03;99925.78;10394447;28;20128;-65
2023/10/30 05:24:14;;;;;;;8.07;1.40;;;;;;;12.09;94.89;99930.91;10397483;28;20046;-66
2023/10/30 05:29:37;;;;;;;11.57;1.83;;;;;;;12.07;94.72;99924.94;10401153;28;20053;-66
2023/10/30 05:34:59;;;;;;;10.10;1.67;;;;;;;12.04;95.61;99917.34;10395490;28;20501;-66
2023/10/30 05:40:21;;;;;;;10.32;1.90;;;;;;;11.96;96.06;99915.13;10396600;28;20077;-66
2023/10/30 05:45:43;;;;;;;13.73;2.25;;;;;;;11.98;95.89;99925.41;10397490;28;20127;-66
2023/10/30 05:51:05;;;;;;;7.57;1.73;;;;;;;11.96;95.92;99914.28;10393158;28;20065;-66
2023/10/30 05:56:27;;;;;;;4.75;1.50;;;;;;;11.91;96.61;99914.53;10392644;28;20053;-66
2023/10/30 06:01:49;;;;;;;8.30;1.75;;;;;;;11.90;96.70;99932.75;10406448;28;20395;-66
2023/10/30 06:07:11;;;;;;;10.80;1.90;;;;;;;11.90;96.76;99933.56;10398903;28;20104;-67
2023/10/30 06:12:33;;;;;;;11.98;1.73;;;;;;;11.89;96.90;99937.09;10405903;28;20037;-66
2023/10/30 06:17:55;;;;;;;11.02;1.50;;;;;;;11.89;96.66;99962.16;10403149;28;20045;-66
2023/10/30 06:23:17;;;;;;;9.68;1.70;;;;;;;11.87;97.42;99969.19;10401743;28;20045;-66
2023/10/30 06:28:40;;;;;;;8.25;1.70;;;;;;;11.82;96.91;99977.19;10413312;28;20045;-66
2023/10/30 06:34:02;;;;;;;10.82;1.60;;;;;;;11.81;97.01;99982.47;10410312;28;20132;-65
2023/10/30 06:39:24;;;;;;;10.82;2.25;;;;;;;11.77;97.39;99989.56;10409005;28;20183;-65
2023/10/30 06:44:46;;;;;;;11.50;1.95;;;;;;;11.77;97.04;99992.16;10403316;28;20143;-65
2023/10/30 06:50:09;;;;;;;11.95;1.88;;;;;;;11.72;97.78;99982.91;10409073;28;20080;-65
2023/10/30 06:55:37;;;;;;;7.30;1.50;;;;;;;11.69;97.72;99977.84;10403751;28;20515;-65
2023/10/30 07:01:03;;;;;;;9.23;1.92;;;;;;;11.70;97.84;99992.50;10404749;28;20042;-65
2023/10/30 07:06:25;;;;;;;10.68;2.00;;;;;;;11.70;98.19;100003.69;10405647;28;20046;-65
2023/10/30 07:11:47;;;;;;;10.50;1.92;;;;;;;11.73;98.36;100007.91;10400361;28;20045;-65
2023/10/30 07:17:09;;;;;;;10.65;1.80;;;;;;;11.72;98.19;100001.06;10399105;28;20038;-66
2023/10/30 07:22:31;;;;;;;10.98;1.80;;;;;;;11.78;97.39;100031.84;10405840;28;20052;-66
2023/10/30 07:27:53;;;;;;;11.65;1.77;;;;;;;11.83;97.21;100024.72;10405203;28;20494;-66
2023/10/30 07:33:15;;;;;;;9.90;1.83;;;;;;;11.87;97.18;100016.69;10400393;28;20049;-66
2023/10/30 07:38:38;;;;;;;10.73;2.08;;;;;;;11.89;97.38;100032.16;10398955;28;20053;-66
2023/10/30 07:43:59;;;;;;;12.68;2.17;;;;;;;11.95;97.32;100035.31;10403943;28;20042;-66
2023/10/30 07:49:21;;;;;;;16.52;2.10;;;;;;;11.95;97.61;100018.91;10406873;28;20183;-66
2023/10/30 07:54:43;;;;;;;11.27;2.20;;;;;;;11.97;97.54;100032.66;10400794;28;20628;-65
2023/10/30 08:00:08;;;;;;;9.27;1.73;;;;;;;12.03;97.67;100027.19;10402423;28;20652;-66
2023/10/30 08:05:30;;;;;;;11.38;1.98;;;;;;;12.11;97.21;100031.06;10395339;28;20048;-66
2023/10/30 08:10:52;;;;;;;10.82;1.85;;;;;;;12.17;96.58;100037.69;10403073;28;20060;-65
2023/10/30 08:16:15;;;;;;;12.07;2.00;;;;;;;12.23;96.60;100040.00;10403044;28;20049;-65
2023/10/30 08:21:36;;;;;;;10.13;2.03;;;;;;;12.32;96.35;100039.53;10404346;28;20049;-65
2023/10/30 08:26:59;;;;;;;14.15;2.17;;;;;;;12.36;96.14;100048.81;10396062;28;20493;-66
2023/10/30 08:32:21;;;;;;;11.88;2.00;;;;;;;12.47;95.67;100054.31;10396757;28;20044;-65
2023/10/30 08:37:43;;;;;;;12.82;1.92;;;;;;;12.56;95.21;100059.03;10397918;28;20045;-65
2023/10/30 08:43:05;;;;;;;9.98;1.83;;;;;;;12.60;94.94;100060.56;10395304;28;20080;-66
2023/10/30 08:48:27;;;;;;;17.88;2.10;;;;;;;12.68;94.51;100055.84;10400976;28;20523;-66
2023/10/30 08:53:50;;;;;;;9.68;1.88;;;;;;;12.78;94.71;100070.03;10402248;28;20479;-66
2023/10/30 08:59:12;;;;;;;9.43;1.90;;;;;;;12.85;94.68;100065.38;10397614;28;20041;-66
2023/10/30 09:04:36;;;;;;;9.30;1.98;;;;;;;12.93;94.17;100064.03;10396770;28;20049;-66
2023/10/30 09:09:58;;;;;;;11.77;1.80;;;;;;;13.04;93.90;100077.34;10401046;28;20476;-66
2023/10/30 09:15:20;;;;;;;9.07;2.03;;;;;;;13.15;92.93;100073.38;10400037;28;20042;-66
2023/10/30 09:20:42;;;;;;;11.35;2.03;;;;;;;13.21;93.01;100070.41;10406837;28;20046;-66
2023/10/30 09:26:04;;;;;;;9.77;1.80;;;;;;;13.28;92.74;100085.59;10401928;28;20042;-66
2023/10/30 09:31:30;;;;;;;12.60;1.95;;;;;;;13.39;91.92;100072.03;10400328;28;20500;-65
2023/10/30 09:36:52;;;;;;;11.27;2.15;;;;;;;13.50;90.97;100075.75;10399466;28;20069;-66
2023/10/30 09:42:14;;;;;;;11.15;1.60;;;;;;;13.56;90.74;100079.78;10402781;28;20163;-66
2023/10/30 09:47:36;;;;;;;9.98;1.77;;;;;;;13.60;90.38;100082.13;10404515;28;20128;-66
2023/10/30 09:52:59;;;;;;;11.02;2.15;;;;;;;13.64;89.77;100075.00;10411529;28;20127;-66
2023/10/30 09:58:25;;;;;;;14.05;1.70;;;;;;;13.63;90.82;100075.91;10411449;28;20056;-65
2023/10/30 10:03:47;;;;;;;10.70;2.28;;;;;;;13.65;90.08;100072.31;10411565;28;20041;-66
2023/10/30 10:09:09;;;;;;;13.30;2.00;;;;;;;13.78;89.11;100069.88;10393260;28;20057;-66
2023/10/30 10:14:31;;;;;;;13.65;2.03;;;;;;;13.87;89.14;100074.56;10402380;28;20046;-66
2023/10/30 10:19:54;;;;;;;10.65;2.10;;;;;;;13.92;89.52;100075.16;10398496;28;20498;-66
2023/10/30 10:25:18;;;;;;;10.52;1.92;;;;;;;14.03;88.18;100085.78;10397697;28;20406;-66
2023/10/30 10:30:40;;;;;;;11.55;1.80;;;;;;;14.06;89.16;100081.25;10398487;28;20050;-66
2023/10/30 10:36:04;;;;;;;11.10;1.75;;;;;;;14.15;89.06;100075.53;10398272;28;20049;-65
2023/10/30 10:41:27;;;;;;;11.73;2.03;;;;;;;14.18;88.79;100064.13;10383427;28;20107;-66
2023/10/30 10:46:52;;;;;;;11.65;1.75;;;;;;;14.24;88.04;100053.38;10401068;28;20049;-66
2023/10/30 10:52:15;;;;;;;8.40;1.65;;;;;;;14.22;87.84;100055.22;10409385;28;20038;-66
2023/10/30 10:58:30;;;;;;;18.95;2.05;;;;;;;14.31;87.22;100052.13;10414298;28;20049;-65
2023/10/30 11:03:52;;;;;;;13.30;2.42;;;;;;;14.30;88.18;100042.66;10258904;28;20734;-65
2023/10/30 11:09:22;;;;;;;12.13;2.00;;;;;;;14.46;87.45;100048.63;10278810;28;20095;-65
2023/10/30 11:14:54;;;;;;;11.15;2.05;;;;;;;14.60;88.57;100030.41;10285319;28;20515;-66
2023/10/30 11:20:21;;;;;;;13.38;2.20;;;;;;;14.68;86.67;100033.41;10285202;28;20142;-66
2023/10/30 11:25:50;;;;;;;13.13;2.15;;;;;;;14.81;86.63;100034.38;10280245;28;20092;-66
2023/10/30 11:31:13;;;;;;;10.02;1.80;;;;;;;14.91;86.12;100039.84;10298792;28;20057;-66
2023/10/30 11:36:36;;;;;;;10.50;1.90;;;;;;;14.92;84.99;100034.53;10404138;28;20100;-66
2023/10/30 11:41:59;;;;;;;15.75;2.88;;;;;;;14.88;85.73;100033.06;10405998;28;20030;-66
2023/10/30 11:47:24;;;;;;;11.45;2.13;;;;;;;14.87;85.65;100033.97;10414674;28;20060;-66
2023/10/30 11:52:47;;;;;;;13.80;2.40;;;;;;;14.87;86.04;100026.16;10410245;28;20065;-66
2023/10/30 11:58:10;;;;;;;12.38;2.17;;;;;;;14.84;87.12;100021.16;10386339;28;20623;-66
2023/10/30 12:03:32;;;;;;;9.55;1.70;;;;;;;14.88;86.53;100014.81;10409595;28;20409;-67
2023/10/30 12:08:54;;;;;;;7.97;1.70;;;;;;;14.88;86.18;100020.03;10398474;28;20045;-66
2023/10/30 12:14:20;;;;;;;9.07;1.85;;;;;;;14.93;86.89;100004.09;10408265;28;20041;-66
2023/10/30 12:19:45;;;;;;;12.18;1.48;;;;;;;15.01;85.66;100010.53;10405816;28;20044;-66
2023/10/30 12:25:08;;;;;;;12.77;1.83;;;;;;;15.02;85.43;99993.97;10409898;28;20144;-66
2023/10/30 12:30:34;;;;;;;12.57;2.03;;;;;;;15.07;85.58;99994.50;10408914;28;20560;-66
2023/10/30 12:35:57;;;;;;;12.48;2.03;;;;;;;15.13;85.46;99994.13;10411628;28;20112;-67
2023/10/30 12:41:18;;;;;;;9.77;1.60;;;;;;;15.14;84.42;99974.94;10412677;28;20127;-67
2023/10/30 12:46:41;;;;;;;12.68;1.98;;;;;;;15.26;84.95;99973.34;10401231;28;20050;-67
2023/10/30 12:52:05;;;;;;;15.65;2.15;;;;;;;15.22;85.06;99956.22;10399867;28;20045;-67
2023/10/30 12:57:27;;;;;;;7.70;1.83;;;;;;;15.21;84.92;99964.16;10407800;28;20105;-67
2023/10/30 13:02:49;;;;;;;10.77;1.77;;;;;;;15.25;83.59;99963.03;10395080;28;20037;-67
2023/10/30 13:08:12;;;;;;;6.78;1.55;;;;;;;15.23;85.16;99957.06;10405079;28;20063;-68
2023/10/30 13:13:34;;;;;;;6.85;1.30;;;;;;;15.30;84.26;99967.03;10406183;28;20049;-68
2023/10/30 13:18:56;;;;;;;8.60;1.70;;;;;;;15.25;85.42;99963.03;10408911;28;20069;-68
2023/10/30 13:24:18;;;;;;;9.65;1.50;;;;;;;15.25;83.49;99960.44;10395612;28;20073;-67
2023/10/30 13:29:40;;;;;;;12.43;1.70;;;;;;;15.18;84.76;99954.75;10403795;28;20090;-65
2023/10/30 13:35:04;;;;;;;11.27;1.83;;;;;;;15.17;85.21;99952.25;10383166;28;20037;-67
2023/10/30 13:40:26;;;;;;;13.25;1.70;;;;;;;15.10;85.64;99941.38;10406297;28;20124;-67
2023/10/30 13:45:47;;;;;;;13.60;1.98;;;;;;;15.12;85.31;99921.28;10383639;28;20498;-67
2023/10/30 13:51:09;;;;;;;9.18;1.38;;;;;;;15.14;85.95;99925.44;10397650;28;20149;-67
2023/10/30 13:56:31;;;;;;;8.25;1.60;;;;;;;15.11;87.14;99907.41;10402517;28;20552;-67
2023/10/30 14:01:54;;;;;;;10.35;1.60;;;;;;;15.14;87.06;99901.97;10387290;28;20045;-67
2023/10/30 14:07:16;;;;;;;7.72;1.35;;;;;;;15.29;86.29;99902.75;10396829;28;20088;-67
2023/10/30 14:12:41;;;;;;;8.77;1.40;;;;;;;15.35;86.38;99909.34;10395836;28;20054;-67
2023/10/30 14:18:04;;;;;;;8.75;1.35;;;;;;;15.38;85.41;99907.41;10396323;28;20417;-67
2023/10/30 14:23:26;;;;;;;11.75;1.60;;;;;;;15.36;85.79;99906.69;10393796;28;20045;-67
2023/10/30 14:28:49;;;;;;;7.63;1.73;;;;;;;15.28;86.83;99902.88;10399834;28;20050;-67
2023/10/30 14:34:11;;;;;;;7.40;1.42;;;;;;;15.23;87.99;99884.09;10397588;28;20038;-67
2023/10/30 14:39:34;;;;;;;9.20;1.58;;;;;;;15.22;86.59;99898.06;10401639;28;20045;-67
2023/10/30 14:44:56;;;;;;;12.52;1.92;;;;;;;15.21;87.92;99899.00;10413948;28;20046;-65
2023/10/30 14:50:18;;;;;;;8.60;2.05;;;;;;;15.22;87.95;99882.44;10404851;28;20101;-65
2023/10/30 14:55:40;;;;;;;15.88;2.20;;;;;;;15.18;89.71;99901.81;10413678;28;20060;-65
2023/10/30 15:01:02;;;;;;;11.52;1.80;;;;;;;15.13;90.26;99883.03;10404866;28;20122;-65
2023/10/30 15:06:24;;;;;;;9.55;1.83;;;;;;;15.10;90.29;99884.03;10407411;28;20120;-65
2023/10/30 15:11:46;;;;;;;10.27;1.52;;;;;;;15.06;90.48;99883.41;10430638;28;20454;-66
2023/10/30 15:17:08;;;;;;;9.55;1.83;;;;;;;15.02;91.44;99892.34;10437301;28;20080;-67
2023/10/30 15:22:30;;;;;;;10.60;1.95;;;;;;;15.01;90.58;99882.88;10408607;28;20042;-68
2023/10/30 15:27:52;;;;;;;12.43;2.10;;;;;;;14.97;91.24;99877.94;10407363;28;20132;-68
2023/10/30 15:33:15;;;;;;;19.75;2.25;;;;;;;14.92;91.60;99875.59;10404174;28;20045;-68
2023/10/30 15:38:37;;;;;;;10.77;1.80;;;;;;;14.88;92.20;99876.75;10413899;28;20047;-68
2023/10/30 15:44:00;;;;;;;8.57;2.08;;;;;;;14.90;92.02;99876.66;10405201;28;20140;-68
2023/10/30 15:49:22;;;;;;;7.80;1.67;;;;;;;14.86;92.90;99863.00;10410540;28;20053;-68
2023/10/30 15:54:44;;;;;;;6.90;1.65;;;;;;;14.83;93.24;99870.97;10393620;28;20120;-68
2023/10/30 16:00:07;;;;;;;7.25;1.70;;;;;;;14.78;92.80;99870.44;10402949;28;20053;-68
2023/10/30 16:05:29;;;;;;;9.80;1.50;;;;;;;14.76;93.30;99853.25;10410202;28;20528;-68
2023/10/30 16:11:11;;;;;;;6.55;2.08;;;;;;;14.71;94.02;99832.69;10410915;28;20510;-68
2023/10/30 16:16:51;;;;;;;11.45;1.65;;;;;;;14.68;94.84;99830.28;10408407;28;20490;-68
2023/10/30 16:22:16;;;;;;;10.05;1.95;;;;;;;14.63;95.10;99816.69;10404070;28;20033;-68
2023/10/30 16:27:38;;;;;;;10.90;2.15;;;;;;;14.59;95.51;99809.19;10410594;28;20068;-68
2023/10/30 16:33:00;;;;;;;8.43;2.10;;;;;;;14.54;95.57;99788.63;10401684;28;20116;-68
2023/10/30 16:38:22;;;;;;;9.23;2.67;;;;;;;14.52;96.19;99792.28;10406407;28;20401;-68
2023/10/30 16:43:44;;;;;;;7.45;2.80;;;;;;;14.50;96.49;99795.00;10403248;28;20056;-66
2023/10/30 16:49:06;;;;;;;15.13;3.05;;;;;;;14.47;96.40;99792.56;10402288;28;20050;-68
2023/10/30 16:54:28;;;;;;;24.60;4.10;;;;;;;14.47;96.32;99792.56;10404092;28;20120;-68
2023/10/30 16:59:52;;;;;;;14.73;4.00;;;;;;;14.47;96.40;99795.16;10391070;28;20050;-68
2023/10/30 17:05:14;;;;;;;17.05;4.38;;;;;;;14.46;96.74;99792.66;10402660;28;20127;-68
2023/10/30 17:10:36;;;;;;;13.20;4.40;;;;;;;14.43;97.00;99788.47;10402784;28;20124;-68
2023/10/30 17:15:58;;;;;;;11.13;3.72;;;;;;;14.40;96.62;99783.47;10402732;28;20397;-68
2023/10/30 17:21:20;;;;;;;13.85;4.20;;;;;;;14.40;97.43;99782.63;10400067;28;20092;-68
2023/10/30 17:26:43;;;;;;;13.20;4.50;;;;;;;14.42;97.62;99784.22;10407731;28;20048;-68
2023/10/30 17:32:05;;;;;;;9.57;3.83;;;;;;;14.42;97.59;99785.97;10406845;28;20409;-68
2023/10/30 17:37:27;;;;;;;12.75;4.45;;;;;;;14.32;97.53;99775.28;10399839;28;20120;-68
2023/10/30 17:42:49;;;;;;;15.95;4.93;;;;;;;14.36;97.80;99783.75;10405888;28;20045;-68
2023/10/30 17:48:11;;;;;;;13.75;5.00;;;;;;;14.33;98.15;99766.56;10398384;28;20048;-68
2023/10/30 17:53:33;;;;;;;13.23;4.95;;;;;;;14.33;98.37;99774.38;10397299;28;20044;-68
2023/10/30 17:58:55;;;;;;;17.15;4.60;;;;;;;14.36;98.35;99776.78;10398719;28;20049;-67
2023/10/30 18:04:17;;;;;;;16.15;4.55;;;;;;;14.33;98.33;99776.97;10411360;28;20049;-67
2023/10/30 18:09:38;;;;;;;17.23;3.83;;;;;;;14.35;98.43;99769.91;10400983;28;20054;-67
2023/10/30 18:15:00;;;;;;;13.73;3.67;;;;;;;14.32;98.19;99772.69;10399769;28;20045;-68
2023/10/30 18:20:26;;;;;;;14.73;3.38;;;;;;;14.30;98.68;99765.94;10408694;28;20046;-68
2023/10/30 18:25:48;;;;;;;13.63;3.60;;;;;;;14.30;99.06;99760.72;10412312;28;20048;-67
2023/10/30 18:31:12;;;;;;;12.50;3.72;;;;;;;14.26;98.83;99757.44;10413540;28;20049;-67
2023/10/30 18:36:34;;;;;;;13.90;3.90;;;;;;;14.26;99.31;99749.63;10414620;28;20443;-67
2023/10/30 18:41:56;;;;;;;9.93;3.25;;;;;;;14.22;98.66;99742.94;10423094;28;20493;-67
2023/10/30 18:47:18;;;;;;;10.15;2.95;;;;;;;14.25;98.60;99752.34;10414911;28;20040;-67
2023/10/30 18:52:40;;;;;;;11.52;3.35;;;;;;;14.22;99.40;99737.75;10413417;28;20054;-67
2023/10/30 18:58:02;;;;;;;13.63;3.65;;;;;;;14.22;100.00;99742.94;10414058;28;20108;-67
2023/10/30 19:03:24;;;;;;;12.80;4.00;;;;;;;14.19;99.59;99735.34;10418970;28;20034;-68
2023/10/30 19:08:50;;;;;;;12.88;4.18;;;;;;;14.22;99.33;99729.94;10412329;28;20052;-68
2023/10/30 19:14:12;;;;;;;12.13;4.03;;;;;;;14.21;99.49;99733.44;10412735;28;20092;-68
2023/10/30 19:19:34;;;;;;;16.02;4.13;;;;;;;14.18;99.74;99720.66;10417370;28;20132;-68
2023/10/30 19:24:56;;;;;;;9.75;4.28;;;;;;;14.15;99.93;99721.66;10397378;28;20690;-68
2023/10/30 19:30:18;;;;;;;13.00;5.55;;;;;;;14.17;99.97;99711.19;10409980;28;20038;-68
2023/10/30 19:35:40;;;;;;;20.63;5.78;;;;;;;14.16;100.00;99712.09;10401802;28;20778;-68
2023/10/30 19:41:02;;;;;;;20.15;6.47;;;;;;;14.09;100.00;99705.59;10416915;28;20050;-68
2023/10/30 19:46:24;;;;;;;17.15;8.25;;;;;;;14.08;100.00;99709.16;10413434;28;20048;-68
2023/10/30 19:51:56;;;;;;;19.85;8.38;;;;;;;14.06;100.00;99695.41;10413342;28;20056;-68
2023/10/30 19:57:26;;;;;;;16.45;7.22;;;;;;;13.98;100.00;99695.88;10407516;28;20045;-68
2023/10/30 20:02:48;;;;;;;16.92;6.43;;;;;;;13.94;100.00;99683.16;10411851;28;20100;-68
2023/10/30 20:08:10;;;;;;;12.65;5.05;;;;;;;13.90;100.00;99679.06;10409815;28;20052;-67
2023/10/30 20:13:33;;;;;;;9.00;4.38;;;;;;;13.87;100.00;99679.25;10431957;28;20056;-67
2023/10/30 20:18:54;;;;;;;7.30;4.07;;;;;;;13.80;100.00;99675.38;10405065;28;20104;-68
2023/10/30 20:24:16;;;;;;;6.72;3.58;;;;;;;13.75;100.00;99674.81;10400211;28;20103;-66
2023/10/30 20:29:38;;;;;;;8.88;3.80;;;;;;;13.70;100.00;99662.09;10405849;28;20600;-67
2023/10/30 20:35:00;;;;;;;11.63;3.80;;;;;;;13.65;100.00;99655.50;10405514;28;20127;-67
2023/10/30 20:40:23;;;;;;;6.05;3.22;;;;;;;13.58;100.00;99623.03;10411936;28;20054;-67
2023/10/30 20:45:45;;;;;;;8.13;3.65;;;;;;;13.58;100.00;99620.44;10425459;28;20096;-67
2023/10/30 20:51:07;;;;;;;5.63;3.58;;;;;;;13.56;100.00;99602.34;10412190;28;20049;-67
2023/10/30 20:56:29;;;;;;;8.15;3.33;;;;;;;13.55;100.00;99594.63;10404554;28;20128;-67
2023/10/30 21:01:53;;;;;;;21.92;3.17;;;;;;;13.52;100.00;99594.81;10396585;28;20044;-67
2023/10/30 21:07:15;;;;;;;7.10;3.42;;;;;;;13.50;100.00;99570.66;10407613;28;20450;-67
2023/10/30 21:12:37;;;;;;;10.90;3.83;;;;;;;13.46;100.00;99571.81;10403458;28;20048;-67
2023/10/30 21:17:59;;;;;;;6.68;3.83;;;;;;;13.43;100.00;99570.22;10397834;28;20041;-67
2023/10/30 21:23:21;;;;;;;6.00;3.33;;;;;;;13.43;100.00;99569.38;10391660;28;20048;-67
2023/10/30 21:28:43;;;;;;;8.95;4.03;;;;;;;13.39;100.00;99553.16;10407069;28;20049;-67
2023/10/30 21:34:05;;;;;;;12.88;4.70;;;;;;;13.37;100.00;99549.00;10413049;28;20717;-67
2023/10/30 21:39:27;;;;;;;10.88;4.32;;;;;;;13.39;100.00;99547.09;10397895;28;20052;-67
2023/10/30 21:44:51;;;;;;;119.05;41.30;;;;;;;13.39;100.00;99549.72;10405249;28;20034;-67
2023/10/30 21:50:13;;;;;;;111.38;36.47;;;;;;;13.38;100.00;99555.84;10410729;28;20049;-67
2023/10/30 21:55:35;;;;;;;37.22;13.90;;;;;;;13.37;100.00;99549.00;10402540;28;20056;-67
2023/10/30 22:00:57;;;;;;;17.42;7.50;;;;;;;13.38;100.00;99543.69;10403490;28;20052;-67
2023/10/30 22:06:19;;;;;;;14.85;6.22;;;;;;;13.40;100.00;99539.25;10397505;28;20046;-67
2023/10/30 22:11:41;;;;;;;13.88;5.45;;;;;;;13.41;100.00;99540.06;10399455;28;20147;-67
2023/10/30 22:17:03;;;;;;;10.00;5.28;;;;;;;13.43;100.00;99522.59;10401249;28;20042;-67
2023/10/30 22:22:25;;;;;;;10.30;5.15;;;;;;;13.43;100.00;99504.41;10399486;28;20449;-67
2023/10/30 22:27:47;;;;;;;13.52;6.13;;;;;;;13.43;100.00;99496.63;10401515;28;20393;-67
2023/10/30 22:33:09;;;;;;;10.25;5.90;;;;;;;13.39;100.00;99484.75;10404432;28;20048;-67
2023/10/30 22:38:31;;;;;;;11.15;6.07;;;;;;;13.37;100.00;99477.06;10400940;28;20069;-67
2023/10/30 22:43:53;;;;;;;14.50;5.85;;;;;;;13.38;100.00;99467.50;10401707;28;20061;-67
2023/10/30 22:49:15;;;;;;;11.13;6.20;;;;;;;13.38;100.00;99457.09;10404260;28;20041;-67
2023/10/30 22:54:37;;;;;;;13.38;6.60;;;;;;;13.37;100.00;99439.88;10402749;28;20486;-67
2023/10/30 22:59:59;;;;;;;11.60;7.20;;;;;;;13.37;100.00;99447.66;10384646;28;20132;-67
2023/10/30 23:05:22;;;;;;;9.55;6.65;;;;;;;13.42;100.00;99448.19;10404326;28;20069;-67
2023/10/30 23:10:44;;;;;;;18.67;7.78;;;;;;;13.42;100.00;99441.25;10408273;28;20057;-67
2023/10/30 23:16:06;;;;;;;11.85;7.97;;;;;;;13.41;100.00;99436.13;10410355;28;20069;-67
2023/10/30 23:21:28;;;;;;;11.85;7.40;;;;;;;13.42;100.00;99438.66;10407102;28;20188;-67
2023/10/30 23:26:50;;;;;;;10.23;7.20;;;;;;;13.42;100.00;99422.22;10404425;28;20129;-67
2023/10/30 23:32:12;;;;;;;10.88;7.82;;;;;;;13.41;100.00;99420.53;10401368;28;20053;-66
2023/10/30 23:37:34;;;;;;;14.00;9.38;;;;;;;13.39;100.00;99409.41;10403917;28;20041;-66
2023/10/30 23:42:59;;;;;;;13.77;9.13;;;;;;;13.42;100.00;99396.22;10386695;28;20046;-66
2023/10/30 23:48:25;;;;;;;12.48;9.50;;;;;;;13.36;100.00;99386.22;10400738;28;20490;-66
2023/10/30 23:53:47;;;;;;;13.90;9.52;;;;;;;13.39;100.00;99384.25;10403368;28;20073;-66
2023/10/30 23:59:09;;;;;;;14.60;10.07;;;;;;;13.41;100.00;99389.34;10403430;28;20056;-66
